createdAt,value
2023-03-28T00:06:42.046Z,101232.66
2023-03-28T00:14:15.994Z,101229.31
2023-03-28T00:21:51.647Z,101246.50
2023-03-28T00:29:26.247Z,101251.69
2023-03-28T00:37:02.683Z,101260.94
2023-03-28T00:44:44.694Z,101276.31
2023-03-28T00:52:24.318Z,101273.00
2023-03-28T00:59:58.627Z,101277.91
2023-03-28T01:07:39.794Z,101294.25
2023-03-28T01:15:13.824Z,101308.13
2023-03-28T01:23:35.221Z,101308.03
2023-03-28T01:31:34.290Z,101309.25
2023-03-28T01:39:16.892Z,101321.94
2023-03-28T01:46:57.873Z,101331.91
2023-03-28T01:54:41.404Z,101341.09
2023-03-28T02:02:24.894Z,101346.00
2023-03-28T02:10:02.675Z,101357.31
2023-03-28T02:17:54.537Z,101359.13
2023-03-28T02:25:31.790Z,101375.75
2023-03-28T02:33:10.095Z,101396.59
2023-03-28T02:40:56.226Z,101391.25
2023-03-28T02:48:56.728Z,101398.03
2023-03-28T02:56:41.357Z,101404.41
2023-03-28T03:04:17.247Z,101421.28
2023-03-28T03:11:52.390Z,101416.03
2023-03-28T03:19:26.440Z,101445.66
2023-03-28T03:34:53.305Z,101463.19
2023-03-28T03:42:29.060Z,101476.25
2023-03-28T03:50:03.065Z,101488.19
2023-03-28T03:57:38.467Z,101487.72
2023-03-28T04:05:12.428Z,101500.28
2023-03-28T04:12:47.666Z,101508.69
2023-03-28T04:20:21.447Z,101519.72
2023-03-28T04:27:56.825Z,101532.47
2023-03-28T04:35:30.883Z,101547.63
2023-03-28T04:43:06.325Z,101574.44
2023-03-28T04:50:40.100Z,101581.00
2023-03-28T04:58:15.889Z,101599.31
2023-03-28T05:05:51.551Z,101616.78
2023-03-28T05:13:26.988Z,101631.56
2023-03-28T05:21:01.245Z,101633.38
2023-03-28T05:28:36.898Z,101658.97
2023-03-28T05:36:11.011Z,101668.59
2023-03-28T05:43:46.645Z,101672.41
2023-03-28T05:59:13.572Z,101701.25
2023-03-28T06:06:48.731Z,101707.63
2023-03-28T06:14:24.537Z,101716.16
2023-03-28T06:21:58.985Z,101718.59
2023-03-28T06:29:34.599Z,101738.66
2023-03-28T06:37:08.628Z,101744.13
2023-03-28T06:44:44.310Z,101752.94
2023-03-28T06:52:19.729Z,101760.50
2023-03-28T06:59:55.429Z,101765.06
2023-03-28T07:07:29.309Z,101784.50
2023-03-28T07:15:05.659Z,101780.16
2023-03-28T07:22:39.495Z,101788.13
2023-03-28T07:30:15.998Z,101804.00
2023-03-28T07:37:49.838Z,101798.19
2023-03-28T07:45:25.155Z,101819.75
2023-03-28T07:53:00.150Z,101820.81
2023-03-28T08:00:35.635Z,101830.00
2023-03-28T08:08:09.946Z,101839.06
2023-03-28T08:15:45.285Z,101852.81
2023-03-28T08:23:19.229Z,101861.78
2023-03-28T08:30:54.773Z,101856.88
2023-03-28T08:38:29.244Z,101864.38
2023-03-28T08:46:04.862Z,101866.59
2023-03-28T08:53:44.101Z,101867.28
2023-03-28T09:01:22.487Z,101883.88
2023-03-28T09:09:29.051Z,101886.38
2023-03-28T09:17:13.314Z,101901.66
2023-03-28T09:24:58.514Z,101899.28
2023-03-28T09:32:38.345Z,101910.06
2023-03-28T09:40:21.268Z,101909.44
2023-03-28T09:47:57.318Z,101915.38
2023-03-28T09:55:32.272Z,101925.13
2023-03-28T10:03:22.985Z,101933.31
2023-03-28T10:11:00.193Z,101946.31
2023-03-28T10:18:35.935Z,101932.22
2023-03-28T10:26:13.777Z,101942.81
2023-03-28T10:33:53.726Z,101945.22
2023-03-28T10:41:28.623Z,101956.31
2023-03-28T10:49:06.892Z,101943.75
2023-03-28T10:56:44.663Z,101940.84
2023-03-28T11:04:32.300Z,101957.50
2023-03-28T11:12:28.310Z,101942.50
2023-03-28T11:20:35.738Z,101951.69
2023-03-28T11:28:21.051Z,101972.25
2023-03-28T11:36:01.244Z,101951.09
2023-03-28T11:43:42.595Z,101966.28
2023-03-28T11:51:21.807Z,101961.31
2023-03-28T11:59:02.173Z,101956.13
2023-03-28T12:06:55.722Z,101954.94
2023-03-28T12:22:42.518Z,101957.75
2023-03-28T12:46:19.621Z,101952.63
2023-03-28T12:54:22.519Z,101955.97
2023-03-28T13:09:59.825Z,101945.19
2023-03-28T13:17:37.840Z,101951.91
2023-03-28T13:25:26.442Z,101957.53
2023-03-28T13:33:04.047Z,101951.56
2023-03-28T13:40:55.913Z,101942.50
2023-03-28T13:48:34.943Z,101938.41
2023-03-28T13:56:19.812Z,101938.63
2023-03-28T14:03:55.085Z,101936.41
2023-03-28T14:11:35.830Z,101930.06
2023-03-28T14:19:20.082Z,101926.38
2023-03-28T14:27:10.638Z,101929.84
2023-03-28T14:34:45.786Z,101928.97
2023-03-28T14:42:23.845Z,101926.44
2023-03-28T14:49:58.264Z,101926.66
2023-03-28T14:57:34.831Z,101932.97
2023-03-28T15:05:11.251Z,101920.66
2023-03-28T15:12:49.834Z,101914.06
2023-03-28T15:20:27.623Z,101911.16
2023-03-28T15:28:06.544Z,101910.16
2023-03-28T15:35:43.730Z,101903.94
2023-03-28T15:43:38.968Z,101897.69
2023-03-28T15:51:17.430Z,101893.16
2023-03-28T15:58:53.508Z,101898.56
2023-03-28T16:14:05.661Z,101905.03
2023-03-28T16:21:39.359Z,101900.16
2023-03-28T16:29:14.663Z,101905.38
2023-03-28T16:36:48.839Z,101906.56
2023-03-28T16:44:24.641Z,101899.09
2023-03-28T16:51:58.431Z,101911.81
2023-03-28T16:59:33.718Z,101891.69
2023-03-28T17:07:07.537Z,101880.63
2023-03-28T17:14:43.089Z,101892.78
2023-03-28T17:22:16.982Z,101885.22
2023-03-28T17:29:52.557Z,101878.47
2023-03-28T17:37:26.461Z,101878.09
2023-03-28T17:45:01.860Z,101874.03
2023-03-28T17:52:35.858Z,101871.66
2023-03-28T18:00:12.600Z,101876.34
2023-03-28T18:07:47.663Z,101874.81
2023-03-28T18:15:22.842Z,101867.00
2023-03-28T18:22:56.784Z,101871.69
2023-03-28T18:30:32.181Z,101876.38
2023-03-28T18:38:06.149Z,101881.19
2023-03-28T18:45:41.940Z,101883.25
2023-03-28T18:53:16.011Z,101880.13
2023-03-28T19:00:57.526Z,101882.13
2023-03-28T19:08:31.488Z,101890.34
2023-03-28T19:16:09.101Z,101870.25
2023-03-28T19:23:43.651Z,101873.47
2023-03-28T19:31:20.297Z,101877.38
2023-03-28T19:38:54.415Z,101877.97
2023-03-28T19:46:33.766Z,101877.53
2023-03-28T19:54:09.255Z,101879.69
2023-03-28T20:01:44.687Z,101864.09
2023-03-28T20:09:18.638Z,101874.19
2023-03-28T20:16:53.821Z,101867.38
2023-03-28T20:24:28.454Z,101852.69
2023-03-28T20:32:04.926Z,101841.59
2023-03-28T20:39:39.041Z,101830.53
2023-03-28T20:47:20.486Z,101819.44
2023-03-28T20:54:55.051Z,101819.63
2023-03-28T21:02:33.731Z,101825.22
2023-03-28T21:10:10.206Z,101820.31
2023-03-28T21:17:49.172Z,101811.94
2023-03-28T21:25:23.373Z,101809.69
2023-03-28T21:33:02.126Z,101797.00
2023-03-28T21:40:37.426Z,101806.31
2023-03-28T21:48:13.280Z,101808.59
2023-03-28T21:55:47.392Z,101803.03
2023-03-28T22:03:23.869Z,101796.47
2023-03-28T22:11:01.746Z,101796.94
2023-03-28T22:18:37.285Z,101796.47
2023-03-28T22:26:11.496Z,101784.84
2023-03-28T22:33:47.390Z,101777.63
2023-03-28T22:41:22.042Z,101777.16
2023-03-28T22:48:58.577Z,101777.72
2023-03-28T22:56:33.972Z,101765.16
2023-03-28T23:04:09.233Z,101762.16
2023-03-28T23:19:36.413Z,101746.13
2023-03-28T23:27:10.276Z,101727.09
2023-03-28T23:34:45.764Z,101711.78
2023-03-28T23:42:19.852Z,101712.31
2023-03-28T23:49:55.075Z,101702.22
2023-03-28T23:57:29.521Z,101707.94
